createdAt,value
2023-09-03T00:00:45.148Z,102340.47
2023-09-03T00:03:12.466Z,102338.69
2023-09-03T00:05:48.112Z,102332.47
2023-09-03T00:08:15.215Z,102333.38
2023-09-03T00:10:42.395Z,102349.31
2023-09-03T00:13:09.644Z,102348.44
2023-09-03T00:15:40.700Z,102345.75
2023-09-03T00:18:11.660Z,102344.88
2023-09-03T00:20:40.956Z,102344.00
2023-09-03T00:23:09.118Z,102348.44
2023-09-03T00:25:39.268Z,102338.69
2023-09-03T00:28:06.615Z,102341.34
2023-09-03T00:30:34.206Z,102345.78
2023-09-03T00:33:01.469Z,102351.09
2023-09-03T00:35:28.597Z,102350.22
2023-09-03T00:37:55.745Z,102350.22
2023-09-03T00:40:23.008Z,102352.84
2023-09-03T00:42:50.581Z,102363.47
2023-09-03T00:45:17.974Z,102360.81
2023-09-03T00:47:45.710Z,102364.38
2023-09-03T00:50:13.125Z,102378.56
2023-09-03T00:52:40.242Z,102368.81
2023-09-03T00:55:08.189Z,102372.34
2023-09-03T00:57:35.427Z,102379.44
2023-09-03T01:00:02.876Z,102388.28
2023-09-03T01:02:31.081Z,102390.94
2023-09-03T01:04:58.125Z,102389.19
2023-09-03T01:07:25.240Z,102385.63
2023-09-03T01:09:52.391Z,102385.63
2023-09-03T01:12:40.647Z,102388.28
2023-09-03T01:15:23.709Z,102405.97
2023-09-03T01:18:06.535Z,102409.50
2023-09-03T01:20:56.271Z,102417.47
2023-09-03T01:24:09.552Z,102410.41
2023-09-03T01:27:10.399Z,102398.00
2023-09-03T01:29:42.148Z,102390.91
2023-09-03T01:32:12.524Z,102385.59
2023-09-03T01:34:41.169Z,102386.47
2023-09-03T01:37:10.626Z,102390.88
2023-09-03T01:39:37.679Z,102388.22
2023-09-03T01:42:05.501Z,102381.13
2023-09-03T01:44:33.063Z,102385.53
2023-09-03T01:47:37.481Z,102379.34
2023-09-03T01:50:26.418Z,102388.19
2023-09-03T01:53:13.486Z,102389.94
2023-09-03T01:55:46.045Z,102389.94
2023-09-03T01:58:14.484Z,102383.72
2023-09-03T02:00:43.277Z,102387.28
2023-09-03T02:03:12.679Z,102380.19
2023-09-03T02:05:39.772Z,102388.16
2023-09-03T02:08:06.978Z,102388.13
2023-09-03T02:10:34.800Z,102389.91
2023-09-03T02:13:01.772Z,102394.31
2023-09-03T02:15:28.873Z,102388.97
2023-09-03T02:17:56.940Z,102390.75
2023-09-03T02:20:24.038Z,102392.53
2023-09-03T02:22:52.507Z,102393.38
2023-09-03T02:25:19.525Z,102412.84
2023-09-03T02:27:46.626Z,102417.25
2023-09-03T02:30:14.089Z,102415.50
2023-09-03T02:32:41.284Z,102417.22
2023-09-03T02:35:08.657Z,102420.75
2023-09-03T02:37:35.668Z,102419.00
2023-09-03T02:40:03.812Z,102418.09
2023-09-03T02:42:30.870Z,102427.78
2023-09-03T02:44:57.854Z,102418.06
2023-09-03T02:47:24.918Z,102417.19
2023-09-03T02:49:51.992Z,102418.06
2023-09-03T02:52:19.158Z,102429.56
2023-09-03T02:54:46.262Z,102425.09
2023-09-03T02:57:13.364Z,102419.78
2023-09-03T02:59:47.364Z,102415.38
2023-09-03T03:02:14.407Z,102407.41
2023-09-03T03:04:41.639Z,102416.25
2023-09-03T03:07:08.694Z,102417.97
2023-09-03T03:09:35.741Z,102414.44
2023-09-03T03:12:02.758Z,102404.72
2023-09-03T03:14:31.311Z,102395.88
2023-09-03T03:16:58.319Z,102402.00
2023-09-03T03:19:28.039Z,102407.31
2023-09-03T03:21:55.051Z,102417.91
2023-09-03T03:24:22.136Z,102418.78
2023-09-03T03:26:49.228Z,102422.28
2023-09-03T03:29:16.378Z,102417.03
2023-09-03T03:31:44.224Z,102415.25
2023-09-03T03:34:11.300Z,102415.25
2023-09-03T03:36:38.413Z,102399.31
2023-09-03T03:39:05.884Z,102400.19
2023-09-03T03:41:32.981Z,102386.03
2023-09-03T03:44:00.325Z,102390.47
2023-09-03T03:46:27.344Z,102390.41
2023-09-03T03:48:54.388Z,102387.78
2023-09-03T03:51:21.472Z,102401.91
2023-09-03T03:53:50.192Z,102409.81
2023-09-03T03:56:17.254Z,102429.31
2023-09-03T03:58:45.324Z,102431.03
2023-09-03T04:01:20.538Z,102423.06
2023-09-03T04:03:54.315Z,102417.75
2023-09-03T04:06:21.766Z,102420.38
2023-09-03T04:08:48.909Z,102412.41
2023-09-03T04:11:19.875Z,102408.88
2023-09-03T04:13:47.212Z,102406.22
2023-09-03T04:16:18.502Z,102419.47
2023-09-03T04:18:46.665Z,102434.44
2023-09-03T04:21:14.580Z,102433.56
2023-09-03T04:23:41.979Z,102432.66
2023-09-03T04:26:10.778Z,102430.00
2023-09-03T04:28:38.262Z,102438.84
2023-09-03T04:31:05.783Z,102440.63
2023-09-03T04:33:33.273Z,102443.25
2023-09-03T04:36:02.498Z,102459.19
2023-09-03T04:38:29.783Z,102447.69
2023-09-03T04:40:57.940Z,102450.34
2023-09-03T04:43:25.258Z,102452.13
2023-09-03T04:45:54.079Z,102466.25
2023-09-03T04:48:23.081Z,102468.88
2023-09-03T04:50:50.732Z,102464.47
2023-09-03T04:53:17.765Z,102469.75
2023-09-03T04:55:44.798Z,102470.66
2023-09-03T04:58:12.032Z,102475.94
2023-09-03T05:00:39.212Z,102479.47
2023-09-03T05:03:06.789Z,102478.59
2023-09-03T05:05:44.393Z,102464.47
2023-09-03T05:08:11.721Z,102470.66
2023-09-03T05:10:41.836Z,102470.66
2023-09-03T05:13:11.571Z,102475.09
2023-09-03T05:15:38.810Z,102483.97
2023-09-03T05:18:06.255Z,102496.34
2023-09-03T05:20:33.889Z,102492.00
2023-09-03T05:23:00.973Z,102497.31
2023-09-03T05:25:28.041Z,102506.22
2023-09-03T05:27:55.072Z,102498.31
2023-09-03T05:30:23.815Z,102493.06
2023-09-03T05:32:51.373Z,102501.94
2023-09-03T05:35:18.428Z,102504.63
2023-09-03T05:37:46.491Z,102492.28
2023-09-03T05:40:14.183Z,102481.72
2023-09-03T05:42:41.227Z,102493.28
2023-09-03T05:45:08.693Z,102498.63
2023-09-03T05:47:36.103Z,102502.19
2023-09-03T05:50:05.944Z,102502.22
2023-09-03T05:52:33.081Z,102496.94
2023-09-03T05:55:00.238Z,102508.50
2023-09-03T05:57:27.228Z,102500.56
2023-09-03T05:59:56.009Z,102503.25
2023-09-03T06:02:23.030Z,102514.84
2023-09-03T06:04:53.634Z,102521.06
2023-09-03T06:07:20.796Z,102521.09
2023-09-03T06:09:47.933Z,102520.22
2023-09-03T06:12:15.371Z,102536.19
2023-09-03T06:14:42.566Z,102543.31
2023-09-03T06:17:09.583Z,102537.13
2023-09-03T06:19:36.735Z,102537.16
2023-09-03T06:22:04.028Z,102548.69
2023-09-03T06:24:31.480Z,102543.38
2023-09-03T06:26:58.836Z,102547.81
2023-09-03T06:29:27.269Z,102553.16
2023-09-03T06:31:54.426Z,102558.47
2023-09-03T06:34:21.874Z,102569.97
2023-09-03T06:36:49.122Z,102576.16
2023-09-03T06:39:16.226Z,102578.84
2023-09-03T06:41:43.403Z,102586.88
2023-09-03T06:44:10.534Z,102586.84
2023-09-03T06:46:37.713Z,102588.66
2023-09-03T06:49:04.926Z,102590.41
2023-09-03T06:51:31.971Z,102586.84
2023-09-03T06:54:00.603Z,102589.53
2023-09-03T06:56:27.798Z,102589.53
2023-09-03T06:58:54.850Z,102590.41
2023-09-03T07:01:21.916Z,102592.19
2023-09-03T07:03:49.095Z,102590.44
2023-09-03T07:06:16.185Z,102594.84
2023-09-03T07:08:43.187Z,102601.06
2023-09-03T07:11:10.189Z,102607.28
2023-09-03T07:13:37.168Z,102609.06
2023-09-03T07:16:07.726Z,102608.13
2023-09-03T07:18:34.850Z,102613.44
2023-09-03T07:21:08.148Z,102609.88
2023-09-03T07:23:35.631Z,102615.19
2023-09-03T07:26:14.120Z,102615.16
2023-09-03T07:28:41.175Z,102620.47
2023-09-03T07:31:08.238Z,102630.28
2023-09-03T07:33:35.680Z,102618.72
2023-09-03T07:36:02.713Z,102624.00
2023-09-03T07:38:30.120Z,102614.16
2023-09-03T07:40:57.253Z,102615.94
2023-09-03T07:43:24.560Z,102627.44
2023-09-03T07:45:52.024Z,102619.38
2023-09-03T07:48:19.124Z,102631.75
2023-09-03T07:50:46.181Z,102631.69
2023-09-03T07:53:13.655Z,102625.41
2023-09-03T07:55:40.688Z,102631.56
2023-09-03T07:58:07.799Z,102629.69
2023-09-03T08:00:34.834Z,102629.56
2023-09-03T08:03:02.216Z,102625.88
2023-09-03T08:05:29.680Z,102628.44
2023-09-03T08:07:56.814Z,102623.88
2023-09-03T08:10:24.224Z,102622.88
2023-09-03T08:12:54.333Z,102623.63
2023-09-03T08:15:33.612Z,102619.88
2023-09-03T08:18:08.483Z,102619.69
2023-09-03T08:20:35.618Z,102624.91
2023-09-03T08:23:02.622Z,102616.75
2023-09-03T08:25:30.541Z,102620.28
2023-09-03T08:27:57.615Z,102620.19
2023-09-03T08:30:24.672Z,102616.50
2023-09-03T08:32:51.742Z,102618.09
2023-09-03T08:35:18.820Z,102616.97
2023-09-03T08:37:45.964Z,102622.16
2023-09-03T08:40:13.591Z,102630.94
2023-09-03T08:42:44.529Z,102629.03
2023-09-03T08:45:19.394Z,102616.38
2023-09-03T08:47:47.271Z,102613.59
2023-09-03T08:50:16.812Z,102619.75
2023-09-03T08:52:45.912Z,102627.63
2023-09-03T08:55:14.780Z,102615.03
2023-09-03T08:57:42.646Z,102616.69
2023-09-03T09:00:13.382Z,102615.66
2023-09-03T09:02:41.106Z,102617.22
2023-09-03T09:05:10.833Z,102610.72
2023-09-03T09:07:38.046Z,102620.31
2023-09-03T09:10:11.519Z,102620.13
2023-09-03T09:12:52.552Z,102617.16
2023-09-03T09:15:19.715Z,102623.13
2023-09-03T09:17:46.859Z,102628.25
2023-09-03T09:20:19.371Z,102618.94
2023-09-03T09:22:51.006Z,102615.97
2023-09-03T09:25:26.373Z,102611.22
2023-09-03T09:27:55.504Z,102614.41
2023-09-03T09:30:26.356Z,102625.69
2023-09-03T09:33:08.856Z,102629.72
2023-09-03T09:35:36.438Z,102621.31
2023-09-03T09:38:08.945Z,102619.28
2023-09-03T09:40:37.892Z,102615.53
2023-09-03T09:43:10.330Z,102619.81
2023-09-03T09:45:49.792Z,102616.91
2023-09-03T09:48:17.523Z,102616.66
2023-09-03T09:50:47.575Z,102613.69
2023-09-03T09:53:27.073Z,102611.47
2023-09-03T09:56:02.742Z,102612.13
2023-09-03T09:58:41.377Z,102614.81
2023-09-03T10:01:09.882Z,102607.69
2023-09-03T10:03:56.277Z,102604.16
2023-09-03T10:06:27.037Z,102604.41
2023-09-03T10:08:54.127Z,102603.63
2023-09-03T10:11:21.870Z,102607.25
2023-09-03T10:13:50.535Z,102600.94
2023-09-03T10:16:21.281Z,102604.53
2023-09-03T10:18:51.768Z,102610.94
2023-09-03T10:21:36.750Z,102607.53
2023-09-03T10:24:14.534Z,102597.75
2023-09-03T10:26:47.134Z,102609.25
2023-09-03T10:29:18.908Z,102610.75
2023-09-03T10:31:47.214Z,102613.13
2023-09-03T10:34:17.781Z,102610.25
2023-09-03T10:37:35.914Z,102619.91
2023-09-03T10:40:26.166Z,102619.63
2023-09-03T10:43:15.693Z,102609.50
2023-09-03T10:46:06.685Z,102612.59
2023-09-03T10:48:38.169Z,102614.91
2023-09-03T10:51:06.052Z,102613.53
2023-09-03T10:53:41.086Z,102611.22
2023-09-03T10:56:20.360Z,102615.28
2023-09-03T10:59:01.885Z,102619.41
2023-09-03T11:01:34.401Z,102614.69
2023-09-03T11:04:05.508Z,102613.50
2023-09-03T11:06:36.598Z,102613.28
2023-09-03T11:09:06.412Z,102625.78
2023-09-03T11:11:37.837Z,102623.72
2023-09-03T11:14:07.740Z,102628.06
2023-09-03T11:16:42.860Z,102629.59
2023-09-03T11:19:10.213Z,102630.91
2023-09-03T11:21:39.019Z,102620.66
2023-09-03T11:24:16.255Z,102624.84
2023-09-03T11:26:43.962Z,102621.84
2023-09-03T11:29:26.101Z,102625.03
2023-09-03T11:31:53.772Z,102626.50
2023-09-03T11:34:25.827Z,102631.91
2023-09-03T11:36:52.987Z,102619.34
2023-09-03T11:39:20.079Z,102620.13
2023-09-03T11:41:48.325Z,102623.19
2023-09-03T11:44:22.568Z,102628.16
2023-09-03T11:47:00.355Z,102641.34
2023-09-03T11:49:27.626Z,102629.63
2023-09-03T11:52:17.067Z,102626.09
2023-09-03T11:54:44.614Z,102621.78
2023-09-03T11:57:15.775Z,102625.47
2023-09-03T11:59:43.668Z,102625.59
2023-09-03T12:02:12.291Z,102633.06
2023-09-03T12:04:42.728Z,102631.59
2023-09-03T12:07:16.996Z,102625.75
2023-09-03T12:09:44.545Z,102629.56
2023-09-03T12:12:11.893Z,102630.44
2023-09-03T12:14:39.635Z,102633.84
2023-09-03T12:17:07.050Z,102633.66
2023-09-03T12:19:42.431Z,102634.38
2023-09-03T12:22:10.259Z,102635.91
2023-09-03T12:24:37.926Z,102633.91
2023-09-03T12:27:07.107Z,102633.00
2023-09-03T12:29:51.673Z,102630.38
2023-09-03T12:32:38.188Z,102624.78
2023-09-03T12:35:20.109Z,102626.47
2023-09-03T12:37:47.533Z,102629.88
2023-09-03T12:40:14.983Z,102634.22
2023-09-03T12:42:42.188Z,102639.38
2023-09-03T12:45:10.160Z,102637.13
2023-09-03T12:47:41.479Z,102639.47
2023-09-03T12:50:09.244Z,102636.38
2023-09-03T12:52:36.352Z,102638.66
2023-09-03T12:55:04.047Z,102631.28
2023-09-03T12:57:31.079Z,102637.47
2023-09-03T13:00:00.141Z,102634.41
2023-09-03T13:02:27.324Z,102637.72
2023-09-03T13:04:54.430Z,102639.63
2023-09-03T13:07:21.505Z,102637.00
2023-09-03T13:09:48.730Z,102630.00
2023-09-03T13:12:15.734Z,102638.19
2023-09-03T13:14:42.817Z,102634.47
2023-09-03T13:17:09.876Z,102627.38
2023-09-03T13:19:37.974Z,102629.28
2023-09-03T13:22:05.163Z,102626.81
2023-09-03T13:24:32.283Z,102632.63
2023-09-03T13:26:59.298Z,102629.78
2023-09-03T13:29:26.378Z,102626.03
2023-09-03T13:31:53.406Z,102618.03
2023-09-03T13:34:20.429Z,102627.84
2023-09-03T13:36:49.920Z,102623.31
2023-09-03T13:39:17.532Z,102627.91
2023-09-03T13:41:44.619Z,102622.44
2023-09-03T13:44:11.920Z,102611.72
2023-09-03T13:46:38.989Z,102618.22
2023-09-03T13:49:06.133Z,102613.16
2023-09-03T13:51:33.141Z,102613.22
2023-09-03T13:54:01.094Z,102606.94
2023-09-03T13:56:28.121Z,102608.78
2023-09-03T13:58:55.215Z,102608.78
2023-09-03T14:01:24.387Z,102609.63
2023-09-03T14:03:51.989Z,102611.50
2023-09-03T14:06:20.724Z,102602.66
2023-09-03T14:08:48.841Z,102605.56
2023-09-03T14:11:15.940Z,102598.72
2023-09-03T14:13:45.119Z,102599.75
2023-09-03T14:16:15.278Z,102606.22
2023-09-03T14:18:43.411Z,102597.66
2023-09-03T14:21:10.503Z,102599.78
2023-09-03T14:23:37.560Z,102601.91
2023-09-03T14:26:04.579Z,102603.06
2023-09-03T14:28:31.638Z,102604.97
2023-09-03T14:31:01.815Z,102604.22
2023-09-03T14:33:28.859Z,102600.69
2023-09-03T14:35:55.899Z,102597.06
2023-09-03T14:38:23.186Z,102606.03
2023-09-03T14:40:51.887Z,102603.50
2023-09-03T14:43:19.315Z,102606.31
2023-09-03T14:45:46.406Z,102609.16
2023-09-03T14:48:14.153Z,102605.78
2023-09-03T14:50:44.428Z,102606.75
2023-09-03T14:53:11.427Z,102608.63
2023-09-03T14:55:45.326Z,102602.38
2023-09-03T14:58:13.285Z,102593.38
2023-09-03T15:00:40.473Z,102584.53
2023-09-03T15:03:08.280Z,102589.03
2023-09-03T15:05:35.342Z,102582.75
2023-09-03T15:08:02.400Z,102593.81
2023-09-03T15:10:31.495Z,102594.03
2023-09-03T15:12:58.758Z,102592.22
2023-09-03T15:15:25.880Z,102592.22
2023-09-03T15:17:53.016Z,102589.50
2023-09-03T15:20:20.086Z,102587.75
2023-09-03T15:22:47.065Z,102594.16
2023-09-03T15:25:14.110Z,102583.59
2023-09-03T15:27:41.134Z,102585.50
2023-09-03T15:30:08.781Z,102583.94
2023-09-03T15:32:35.894Z,102574.19
2023-09-03T15:35:04.448Z,102581.38
2023-09-03T15:37:31.502Z,102576.88
2023-09-03T15:39:58.793Z,102577.06
2023-09-03T15:42:25.935Z,102581.75
2023-09-03T15:44:53.018Z,102586.59
2023-09-03T15:47:20.057Z,102584.06
2023-09-03T15:49:47.048Z,102576.84
2023-09-03T15:52:14.084Z,102588.50
2023-09-03T15:54:42.550Z,102589.38
2023-09-03T15:57:09.840Z,102588.47
2023-09-03T15:59:36.897Z,102583.84
2023-09-03T16:02:04.284Z,102585.38
2023-09-03T16:04:32.397Z,102586.09
2023-09-03T16:06:59.436Z,102585.97
2023-09-03T16:09:26.993Z,102586.78
2023-09-03T16:11:54.058Z,102587.56
2023-09-03T16:14:21.065Z,102587.50
2023-09-03T16:16:48.012Z,102587.31
2023-09-03T16:19:15.040Z,102579.00
2023-09-03T16:21:42.044Z,102582.50
2023-09-03T16:24:09.206Z,102578.72
2023-09-03T16:26:36.354Z,102590.31
2023-09-03T16:29:03.425Z,102593.28
2023-09-03T16:31:30.570Z,102601.53
2023-09-03T16:33:57.656Z,102592.72
2023-09-03T16:36:24.665Z,102605.31
2023-09-03T16:38:51.786Z,102593.56
2023-09-03T16:41:18.811Z,102591.78
2023-09-03T16:43:45.947Z,102592.78
2023-09-03T16:46:13.965Z,102596.59
2023-09-03T16:48:41.049Z,102595.75
2023-09-03T16:51:09.006Z,102585.03
2023-09-03T16:53:35.996Z,102580.81
2023-09-03T16:56:03.138Z,102583.53
2023-09-03T16:58:30.394Z,102578.69
2023-09-03T17:00:58.230Z,102580.50
2023-09-03T17:03:26.573Z,102572.47
2023-09-03T17:05:54.460Z,102567.50
2023-09-03T17:08:22.278Z,102561.53
2023-09-03T17:10:49.950Z,102558.25
2023-09-03T17:13:17.336Z,102561.19
2023-09-03T17:15:44.678Z,102560.81
2023-09-03T17:18:11.959Z,102560.00
2023-09-03T17:20:44.171Z,102563.63
2023-09-03T17:23:12.598Z,102567.00
2023-09-03T17:25:39.781Z,102561.38
2023-09-03T17:28:07.842Z,102564.72
2023-09-03T17:30:35.889Z,102561.56
2023-09-03T17:33:03.122Z,102561.13
2023-09-03T17:35:30.443Z,102550.69
2023-09-03T17:37:59.375Z,102544.72
2023-09-03T17:40:28.777Z,102552.09
2023-09-03T17:42:56.357Z,102547.88
2023-09-03T17:45:23.702Z,102546.38
2023-09-03T17:47:51.877Z,102542.19
2023-09-03T17:50:19.069Z,102541.59
2023-09-03T17:52:46.103Z,102539.31
2023-09-03T17:55:13.140Z,102542.38
2023-09-03T17:57:40.300Z,102541.88
2023-09-03T18:00:08.165Z,102536.94
2023-09-03T18:02:35.319Z,102547.19
2023-09-03T18:05:02.538Z,102544.97
2023-09-03T18:07:29.561Z,102534.66
2023-09-03T18:09:56.626Z,102537.72
2023-09-03T18:12:25.216Z,102534.53
2023-09-03T18:14:52.251Z,102532.25
2023-09-03T18:17:19.639Z,102524.59
2023-09-03T18:19:49.087Z,102529.41
2023-09-03T18:22:16.132Z,102527.91
2023-09-03T18:24:43.201Z,102526.38
2023-09-03T18:27:10.270Z,102527.47
2023-09-03T18:29:37.411Z,102517.94
2023-09-03T18:32:04.913Z,102517.28
2023-09-03T18:34:32.302Z,102513.03
2023-09-03T18:36:59.402Z,102520.38
2023-09-03T18:39:26.719Z,102523.25
2023-09-03T18:41:53.887Z,102528.78
2023-09-03T18:44:20.942Z,102530.72
2023-09-03T18:46:48.052Z,102535.28
2023-09-03T18:49:15.235Z,102530.09
2023-09-03T18:51:46.649Z,102543.59
2023-09-03T18:54:14.162Z,102536.63
2023-09-03T18:56:41.178Z,102543.88
2023-09-03T18:59:08.157Z,102543.97
2023-09-03T19:01:37.129Z,102532.53
2023-09-03T19:04:05.269Z,102531.72
2023-09-03T19:06:32.505Z,102536.28
2023-09-03T19:08:59.769Z,102533.75
2023-09-03T19:11:30.224Z,102528.44
2023-09-03T19:13:57.329Z,102528.56
2023-09-03T19:16:24.521Z,102528.63
2023-09-03T19:18:51.780Z,102519.81
2023-09-03T19:21:18.973Z,102522.59
2023-09-03T19:23:46.243Z,102523.59
2023-09-03T19:26:15.654Z,102525.41
2023-09-03T19:28:42.628Z,102524.56
2023-09-03T19:31:09.845Z,102530.00
2023-09-03T19:33:37.268Z,102527.41
2023-09-03T19:36:04.867Z,102522.13
2023-09-03T19:38:35.813Z,102523.97
2023-09-03T19:41:03.349Z,102521.34
2023-09-03T19:43:30.504Z,102526.72
2023-09-03T19:46:01.785Z,102525.03
2023-09-03T19:48:34.938Z,102526.81
2023-09-03T19:51:02.797Z,102532.22
2023-09-03T19:53:33.925Z,102530.50
2023-09-03T19:56:06.981Z,102521.66
2023-09-03T19:58:34.484Z,102519.06
2023-09-03T20:01:05.829Z,102514.66
2023-09-03T20:03:34.103Z,102520.97
2023-09-03T20:06:03.937Z,102522.81
2023-09-03T20:08:31.886Z,102531.75
2023-09-03T20:11:06.260Z,102523.84
2023-09-03T20:13:33.652Z,102530.13
2023-09-03T20:16:01.947Z,102526.63
2023-09-03T20:18:29.831Z,102518.72
2023-09-03T20:20:59.078Z,102525.84
2023-09-03T20:23:26.380Z,102518.78
2023-09-03T20:25:58.938Z,102524.16
2023-09-03T20:28:39.534Z,102524.25
2023-09-03T20:31:12.767Z,102530.50
2023-09-03T20:33:39.855Z,102530.53
2023-09-03T20:36:07.280Z,102529.69
2023-09-03T20:38:34.460Z,102531.50
2023-09-03T20:41:02.374Z,102525.34
2023-09-03T20:43:29.539Z,102528.91
2023-09-03T20:46:00.267Z,102531.63
2023-09-03T20:48:30.743Z,102530.75
2023-09-03T20:51:02.949Z,102523.69
2023-09-03T20:53:30.459Z,102528.16
2023-09-03T20:55:57.681Z,102531.69
2023-09-03T20:58:26.073Z,102536.16
2023-09-03T21:00:53.710Z,102533.50
2023-09-03T21:03:21.061Z,102530.88
2023-09-03T21:05:53.080Z,102531.78
2023-09-03T21:08:22.015Z,102532.69
2023-09-03T21:11:01.115Z,102528.25
2023-09-03T21:13:29.539Z,102534.47
2023-09-03T21:15:58.374Z,102541.59
2023-09-03T21:18:29.392Z,102543.38
2023-09-03T21:21:02.657Z,102540.72
2023-09-03T21:23:32.433Z,102544.28
2023-09-03T21:26:00.470Z,102546.06
2023-09-03T21:28:27.575Z,102547.81
2023-09-03T21:30:54.641Z,102552.28
2023-09-03T21:33:21.740Z,102551.38
2023-09-03T21:35:48.770Z,102552.28
2023-09-03T21:38:15.853Z,102552.28
2023-09-03T21:40:42.860Z,102556.69
2023-09-03T21:43:09.932Z,102552.25
2023-09-03T21:45:37.264Z,102559.34
2023-09-03T21:48:08.255Z,102555.78
2023-09-03T21:50:35.454Z,102557.56
2023-09-03T21:53:02.716Z,102550.47
2023-09-03T21:55:29.710Z,102551.34
2023-09-03T21:57:56.698Z,102554.88
2023-09-03T22:00:23.797Z,102552.22
2023-09-03T22:02:51.887Z,102545.13
2023-09-03T22:05:19.217Z,102538.91
2023-09-03T22:07:46.287Z,102540.69
2023-09-03T22:10:14.066Z,102538.94
2023-09-03T22:12:41.251Z,102544.22
2023-09-03T22:15:08.933Z,102541.56
2023-09-03T22:17:36.021Z,102537.09
2023-09-03T22:20:07.925Z,102533.56
2023-09-03T22:22:35.045Z,102544.16
2023-09-03T22:25:02.272Z,102539.75
2023-09-03T22:27:29.450Z,102545.06
2023-09-03T22:29:56.476Z,102544.16
2023-09-03T22:32:23.518Z,102539.72
2023-09-03T22:34:50.722Z,102535.28
2023-09-03T22:37:17.751Z,102532.59
2023-09-03T22:39:44.901Z,102534.38
2023-09-03T22:42:11.910Z,102526.38
2023-09-03T22:44:39.000Z,102532.56
2023-09-03T22:47:07.686Z,102527.25
2023-09-03T22:49:35.064Z,102534.34
2023-09-03T22:52:02.025Z,102535.19
2023-09-03T22:54:29.048Z,102541.41
2023-09-03T22:56:56.167Z,102550.25
2023-09-03T22:59:23.273Z,102550.25
2023-09-03T23:01:50.350Z,102544.06
2023-09-03T23:04:17.622Z,102541.34
2023-09-03T23:06:44.676Z,102536.06
2023-09-03T23:09:11.825Z,102537.78
2023-09-03T23:11:38.845Z,102535.13
2023-09-03T23:14:05.900Z,102537.78
2023-09-03T23:16:32.985Z,102548.41
2023-09-03T23:19:00.615Z,102543.09
2023-09-03T23:21:30.307Z,102539.50
2023-09-03T23:23:59.384Z,102543.06
2023-09-03T23:26:27.446Z,102539.50
2023-09-03T23:28:54.915Z,102537.75
2023-09-03T23:31:22.067Z,102542.16
2023-09-03T23:33:49.488Z,102543.03
2023-09-03T23:36:16.828Z,102540.34
2023-09-03T23:38:44.057Z,102536.81
2023-09-03T23:41:11.159Z,102530.63
2023-09-03T23:43:38.230Z,102527.91
2023-09-03T23:46:06.637Z,102532.34
2023-09-03T23:48:33.825Z,102524.34
2023-09-03T23:51:01.254Z,102533.19
2023-09-03T23:53:28.625Z,102525.19
2023-09-03T23:55:55.876Z,102529.59
2023-09-03T23:58:23.426Z,102534.00
